createdAt,value
2022-08-05T00:00:21.252Z,8.95
2022-08-05T00:02:52.121Z,8.92
2022-08-05T00:05:27.078Z,8.91
2022-08-05T00:08:34.046Z,8.85
2022-08-05T00:11:01.724Z,8.82
2022-08-05T00:13:39.125Z,8.77
2022-08-05T00:16:12.168Z,8.71
2022-08-05T00:18:42.185Z,8.67
2022-08-05T00:21:11.078Z,8.65
2022-08-05T00:23:46.028Z,8.61
2022-08-05T00:26:23.435Z,8.58
2022-08-05T00:28:52.169Z,8.55
2022-08-05T00:31:54.494Z,8.50
2022-08-05T00:34:54.741Z,8.45
2022-08-05T00:37:11.459Z,8.39
2022-08-05T00:39:58.641Z,8.36
2022-08-05T00:42:33.036Z,8.33
2022-08-05T00:45:01.796Z,8.29
2022-08-05T00:47:53.404Z,8.25
2022-08-05T00:50:20.933Z,8.13
2022-08-05T00:52:49.389Z,8.15
2022-08-05T00:55:18.974Z,8.12
2022-08-05T00:57:58.032Z,8.16
2022-08-05T01:00:27.799Z,8.18
2022-08-05T01:02:56.119Z,8.25
2022-08-05T01:05:24.762Z,8.31
2022-08-05T01:08:41.179Z,8.36
2022-08-05T01:10:52.296Z,8.41
2022-08-05T01:13:27.566Z,8.46
2022-08-05T01:16:21.053Z,8.59
2022-08-05T01:19:00.855Z,8.64
2022-08-05T01:21:50.619Z,8.74
2022-08-05T01:24:30.167Z,8.86
2022-08-05T01:27:19.113Z,8.91
2022-08-05T01:29:57.862Z,8.95
2022-08-05T01:32:28.546Z,8.99
2022-08-05T01:34:59.735Z,9.02
2022-08-05T01:37:33.973Z,9.05
2022-08-05T01:40:06.689Z,9.07
2022-08-05T01:42:36.345Z,9.07
2022-08-05T01:45:08.445Z,9.08
2022-08-05T01:47:39.336Z,9.09
2022-08-05T01:50:15.422Z,9.10
2022-08-05T01:52:45.457Z,9.14
2022-08-05T01:55:19.837Z,9.18
2022-08-05T01:58:12.155Z,9.19
2022-08-05T02:00:43.826Z,9.21
2022-08-05T02:03:24.561Z,9.20
2022-08-05T02:06:03.713Z,9.19
2022-08-05T02:08:57.985Z,9.14
2022-08-05T02:11:33.447Z,9.07
2022-08-05T02:14:04.013Z,9.04
2022-08-05T02:16:36.297Z,9.01
2022-08-05T02:19:08.741Z,8.96
2022-08-05T02:21:43.491Z,8.94
2022-08-05T02:24:23.189Z,8.92
2022-08-05T02:26:53.978Z,8.89
2022-08-05T02:29:24.156Z,8.88
2022-08-05T02:32:23.747Z,8.86
2022-08-05T02:34:54.942Z,8.82
2022-08-05T02:37:25.016Z,8.81
2022-08-05T02:39:54.594Z,8.79
2022-08-05T02:42:26.057Z,8.77
2022-08-05T02:44:56.525Z,8.76
2022-08-05T02:48:06.256Z,8.72
2022-08-05T02:50:18.134Z,8.70
2022-08-05T02:52:47.345Z,8.67
2022-08-05T02:55:17.496Z,8.67
2022-08-05T02:58:10.258Z,8.63
2022-08-05T03:00:36.574Z,8.58
2022-08-05T03:03:10.352Z,8.54
2022-08-05T03:06:56.884Z,8.49
2022-08-05T03:08:29.857Z,8.46
2022-08-05T03:11:50.083Z,8.42
2022-08-05T03:13:51.533Z,8.37
2022-08-05T03:16:31.650Z,8.35
2022-08-05T03:19:04.252Z,8.34
2022-08-05T03:21:49.587Z,8.31
2022-08-05T03:24:23.643Z,8.27
2022-08-05T03:26:58.753Z,8.24
2022-08-05T03:29:45.691Z,8.23
2022-08-05T03:32:15.933Z,8.23
2022-08-05T03:34:50.454Z,8.22
2022-08-05T03:37:20.223Z,8.21
2022-08-05T03:39:59.182Z,8.23
2022-08-05T03:42:32.127Z,8.24
2022-08-05T03:45:01.492Z,8.24
2022-08-05T03:47:35.599Z,8.24
2022-08-05T03:50:11.358Z,8.22
2022-08-05T03:54:53.503Z,8.21
2022-08-05T03:56:05.845Z,8.18
2022-08-05T03:58:28.952Z,8.14
2022-08-05T04:00:59.914Z,8.12
2022-08-05T04:03:29.379Z,8.09
2022-08-05T04:05:59.414Z,8.05
2022-08-05T04:08:36.490Z,8.01
2022-08-05T04:11:08.549Z,7.94
2022-08-05T04:13:51.304Z,7.91
2022-08-05T04:16:24.217Z,7.89
2022-08-05T04:18:54.219Z,7.82
2022-08-05T04:22:10.359Z,7.73
2022-08-05T04:24:19.128Z,7.66
2022-08-05T04:26:51.179Z,7.61
2022-08-05T04:29:19.821Z,7.60
2022-08-05T04:31:49.667Z,7.56
2022-08-05T04:34:32.829Z,7.52
2022-08-05T04:37:03.963Z,7.50
2022-08-05T04:39:35.268Z,7.46
2022-08-05T04:42:04.454Z,7.41
2022-08-05T04:44:32.850Z,7.36
2022-08-05T04:47:09.293Z,7.34
2022-08-05T04:50:01.613Z,7.30
2022-08-05T04:52:28.561Z,7.24
2022-08-05T04:54:57.784Z,7.23
2022-08-05T04:57:28.639Z,7.22
2022-08-05T04:59:58.334Z,7.26
2022-08-05T05:02:36.407Z,7.29
2022-08-05T05:05:25.978Z,7.30
2022-08-05T05:08:00.940Z,7.32
2022-08-05T05:10:30.919Z,7.36
2022-08-05T05:13:04.132Z,7.41
2022-08-05T05:15:56.405Z,7.47
2022-08-05T05:18:31.264Z,7.54
2022-08-05T05:21:02.034Z,7.60
2022-08-05T05:24:03.009Z,7.65
2022-08-05T05:26:28.744Z,7.78
2022-08-05T05:29:02.392Z,7.98
2022-08-05T05:34:02.029Z,8.38
2022-08-05T05:36:31.332Z,8.53
2022-08-05T05:39:03.706Z,8.59
2022-08-05T05:41:40.849Z,8.65
2022-08-05T05:44:35.693Z,8.67
2022-08-05T05:47:04.287Z,8.70
2022-08-05T05:49:33.169Z,8.75
2022-08-05T05:52:05.817Z,8.81
2022-08-05T05:54:50.084Z,9.16
2022-08-05T05:57:19.584Z,9.64
2022-08-05T05:59:48.934Z,10.20
2022-08-05T06:02:32.548Z,10.76
2022-08-05T06:05:10.245Z,11.46
2022-08-05T06:07:57.873Z,12.07
2022-08-05T06:10:36.381Z,12.74
2022-08-05T06:13:06.302Z,13.32
2022-08-05T06:16:28.597Z,13.90
2022-08-05T06:18:31.436Z,14.54
2022-08-05T06:21:00.163Z,15.17
2022-08-05T06:23:43.697Z,15.77
2022-08-05T06:26:21.299Z,16.37
2022-08-05T06:28:50.070Z,17.00
2022-08-05T06:31:22.230Z,17.48
2022-08-05T06:34:07.050Z,18.04
2022-08-05T06:36:57.656Z,18.56
2022-08-05T06:39:27.678Z,19.13
2022-08-05T06:42:01.389Z,19.42
2022-08-05T06:44:32.761Z,19.87
2022-08-05T06:47:02.267Z,20.13
2022-08-05T06:50:00.093Z,20.12
2022-08-05T06:52:37.806Z,20.24
2022-08-05T06:55:06.920Z,20.67
2022-08-05T06:58:02.863Z,21.13
2022-08-05T07:00:25.537Z,21.69
2022-08-05T07:02:54.471Z,22.35
2022-08-05T07:05:36.965Z,22.99
2022-08-05T07:08:10.627Z,23.60
2022-08-05T07:10:39.839Z,24.17
2022-08-05T07:13:58.427Z,24.12
2022-08-05T07:18:02.278Z,24.08
2022-08-05T07:22:27.631Z,23.02
2022-08-05T07:24:57.506Z,22.58
2022-08-05T07:27:27.397Z,22.23
2022-08-05T07:30:27.054Z,21.93
2022-08-05T07:32:57.480Z,21.88
2022-08-05T07:36:02.111Z,21.70
2022-08-05T07:38:33.847Z,21.66
2022-08-05T07:42:07.276Z,21.64
2022-08-05T07:43:51.297Z,21.51
2022-08-05T07:46:25.342Z,21.29
2022-08-05T07:49:02.459Z,20.95
2022-08-05T07:51:41.094Z,20.81
2022-08-05T07:54:18.765Z,20.67
2022-08-05T07:57:14.516Z,20.83
2022-08-05T07:59:40.236Z,20.74
2022-08-05T08:02:15.873Z,20.70
2022-08-05T08:04:46.410Z,20.91
2022-08-05T08:07:15.307Z,20.47
2022-08-05T08:09:43.861Z,20.69
2022-08-05T08:12:32.004Z,20.81
2022-08-05T08:15:03.509Z,20.60
2022-08-05T08:17:35.374Z,20.35
2022-08-05T08:20:43.221Z,20.47
2022-08-05T08:22:55.857Z,20.64
2022-08-05T08:25:26.926Z,20.73
2022-08-05T08:28:18.814Z,21.11
2022-08-05T08:31:01.058Z,21.83
2022-08-05T08:33:30.541Z,22.23
2022-08-05T08:36:38.144Z,23.04
2022-08-05T08:38:55.955Z,23.76
2022-08-05T08:41:26.132Z,24.14
2022-08-05T08:45:22.831Z,24.29
2022-08-05T08:47:03.802Z,24.27
2022-08-05T08:50:22.992Z,24.50
2022-08-05T08:52:43.721Z,24.74
2022-08-05T08:56:01.791Z,24.54
2022-08-05T08:58:08.689Z,24.35
2022-08-05T09:00:37.450Z,24.04
2022-08-05T09:03:06.907Z,23.98
2022-08-05T09:05:38.719Z,23.61
2022-08-05T09:08:27.283Z,23.85
2022-08-05T09:10:56.034Z,23.67
2022-08-05T09:13:24.374Z,24.14
2022-08-05T09:15:59.711Z,24.14
2022-08-05T09:18:27.847Z,24.46
2022-08-05T09:20:59.330Z,24.63
2022-08-05T09:23:37.268Z,24.41
2022-08-05T09:26:20.627Z,24.93
2022-08-05T09:28:50.546Z,25.40
2022-08-05T09:31:43.269Z,24.70
2022-08-05T09:34:10.324Z,25.71
2022-08-05T09:36:55.001Z,25.85
2022-08-05T09:39:39.530Z,26.07
2022-08-05T09:42:22.986Z,26.55
2022-08-05T09:44:56.369Z,26.28
2022-08-05T09:47:36.432Z,26.43
2022-08-05T09:50:18.207Z,26.21
2022-08-05T09:53:05.335Z,26.22
2022-08-05T09:55:58.643Z,26.31
2022-08-05T09:58:25.838Z,26.35
2022-08-05T10:01:01.749Z,26.23
2022-08-05T10:03:58.566Z,26.08
2022-08-05T10:06:28.616Z,26.13
2022-08-05T10:09:10.566Z,25.96
2022-08-05T10:11:57.018Z,25.72
2022-08-05T10:14:27.413Z,25.69
2022-08-05T10:17:36.860Z,25.69
2022-08-05T10:20:04.518Z,25.33
2022-08-05T10:22:42.913Z,24.97
2022-08-05T10:25:18.978Z,24.37
2022-08-05T10:28:13.214Z,24.15
2022-08-05T10:31:20.981Z,23.66
2022-08-05T10:33:28.805Z,23.58
2022-08-05T10:35:59.733Z,23.77
2022-08-05T10:38:33.067Z,23.79
2022-08-05T10:41:09.046Z,24.18
2022-08-05T10:43:47.043Z,24.01
2022-08-05T10:46:18.359Z,24.06
2022-08-05T10:49:01.563Z,24.30
2022-08-05T10:51:48.680Z,24.81
2022-08-05T10:54:56.245Z,25.02
2022-08-05T10:57:32.274Z,24.97
2022-08-05T11:00:18.649Z,24.72
2022-08-05T11:03:25.464Z,24.94
2022-08-05T11:06:08.529Z,25.22
2022-08-05T11:08:58.161Z,25.82
2022-08-05T11:11:53.711Z,26.12
2022-08-05T11:14:57.620Z,26.68
2022-08-05T11:17:57.969Z,26.90
2022-08-05T11:20:37.541Z,26.34
2022-08-05T11:23:25.785Z,26.15
2022-08-05T11:26:08.897Z,25.79
2022-08-05T11:28:45.446Z,25.28
2022-08-05T11:31:57.972Z,26.04
2022-08-05T11:34:39.122Z,26.49
2022-08-05T11:38:29.278Z,26.85
2022-08-05T11:40:03.401Z,26.46
2022-08-05T11:42:37.957Z,26.66
2022-08-05T11:45:14.491Z,26.71
2022-08-05T11:47:54.880Z,27.03
2022-08-05T11:50:23.788Z,27.27
2022-08-05T11:52:57.642Z,27.03
2022-08-05T11:55:32.151Z,27.07
2022-08-05T11:58:09.679Z,26.04
2022-08-05T12:00:41.233Z,26.08
2022-08-05T12:03:29.242Z,25.57
2022-08-05T12:06:00.698Z,25.58
2022-08-05T12:08:31.721Z,24.90
2022-08-05T12:11:05.692Z,24.84
2022-08-05T12:13:48.821Z,25.49
2022-08-05T12:16:27.049Z,25.82
2022-08-05T12:18:56.955Z,26.21
2022-08-05T12:21:29.751Z,26.49
2022-08-05T12:24:04.908Z,26.05
2022-08-05T12:26:36.287Z,26.26
2022-08-05T12:29:05.935Z,26.35
2022-08-05T12:31:46.151Z,26.66
2022-08-05T12:34:21.665Z,25.92
2022-08-05T12:36:53.491Z,25.46
2022-08-05T12:39:22.247Z,25.23
2022-08-05T12:41:57.958Z,25.31
2022-08-05T12:44:33.455Z,24.97
2022-08-05T12:47:03.677Z,24.68
2022-08-05T12:50:04.374Z,24.61
2022-08-05T12:52:38.835Z,24.45
2022-08-05T12:55:22.314Z,24.28
2022-08-05T12:58:49.662Z,24.13
2022-08-05T13:02:02.132Z,24.43
2022-08-05T13:03:32.038Z,24.61
2022-08-05T13:06:02.545Z,24.92
2022-08-05T13:08:33.020Z,25.22
2022-08-05T13:11:02.097Z,25.41
2022-08-05T13:14:04.569Z,25.61
2022-08-05T13:16:20.522Z,25.91
2022-08-05T13:18:55.107Z,25.85
2022-08-05T13:21:38.083Z,26.28
2022-08-05T13:24:36.559Z,26.13
2022-08-05T13:27:05.323Z,25.40
2022-08-05T13:29:39.463Z,25.21
2022-08-05T13:32:33.101Z,24.45
2022-08-05T13:35:03.912Z,24.43
2022-08-05T13:37:34.798Z,24.13
2022-08-05T13:40:16.257Z,23.68
2022-08-05T13:42:55.605Z,23.38
2022-08-05T13:45:24.040Z,23.22
2022-08-05T13:48:08.457Z,22.99
2022-08-05T13:50:38.228Z,22.82
2022-08-05T13:53:08.933Z,22.63
2022-08-05T13:55:50.241Z,22.63
2022-08-05T13:58:30.818Z,23.01
2022-08-05T14:01:00.023Z,23.10
2022-08-05T14:03:28.883Z,23.37
2022-08-05T14:06:25.154Z,23.93
2022-08-05T14:08:47.166Z,23.96
2022-08-05T14:11:20.315Z,24.25
2022-08-05T14:13:49.377Z,24.39
2022-08-05T14:16:23.682Z,24.79
2022-08-05T14:18:52.041Z,24.97
2022-08-05T14:22:06.868Z,25.09
2022-08-05T14:24:11.133Z,25.01
2022-08-05T14:26:51.460Z,25.12
2022-08-05T14:29:27.766Z,25.10
2022-08-05T14:32:11.260Z,24.79
2022-08-05T14:34:47.974Z,24.43
2022-08-05T14:37:19.674Z,24.42
2022-08-05T14:39:56.899Z,24.45
2022-08-05T14:42:27.275Z,24.38
2022-08-05T14:44:56.709Z,23.67
2022-08-05T14:48:02.679Z,23.82
2022-08-05T14:50:18.061Z,23.71
2022-08-05T14:52:53.551Z,23.60
2022-08-05T14:55:39.326Z,23.21
2022-08-05T14:58:10.879Z,23.12
2022-08-05T15:00:58.250Z,23.26
2022-08-05T15:03:27.153Z,23.04
2022-08-05T15:06:06.807Z,23.02
2022-08-05T15:08:58.055Z,23.08
2022-08-05T15:11:52.959Z,23.20
2022-08-05T15:14:33.597Z,23.27
2022-08-05T15:17:05.546Z,23.08
2022-08-05T15:19:49.062Z,22.58
2022-08-05T15:22:17.617Z,22.31
2022-08-05T15:24:45.947Z,22.20
2022-08-05T15:27:16.509Z,22.19
2022-08-05T15:29:48.940Z,22.20
2022-08-05T15:32:17.109Z,22.13
2022-08-05T15:34:45.297Z,22.14
2022-08-05T15:38:08.512Z,22.29
2022-08-05T15:41:00.151Z,22.34
2022-08-05T15:42:58.288Z,22.40
2022-08-05T15:45:38.216Z,22.73
2022-08-05T15:48:07.456Z,22.78
2022-08-05T15:50:36.885Z,22.83
2022-08-05T15:53:06.299Z,23.15
2022-08-05T15:56:02.134Z,23.23
2022-08-05T15:58:28.750Z,23.31
2022-08-05T16:01:11.861Z,23.41
2022-08-05T16:03:45.109Z,22.96
2022-08-05T16:06:19.692Z,23.06
2022-08-05T16:08:51.027Z,22.91
2022-08-05T16:11:42.560Z,22.78
2022-08-05T16:14:17.183Z,22.64
2022-08-05T16:16:46.487Z,22.66
2022-08-05T16:19:25.253Z,22.45
2022-08-05T16:22:03.913Z,22.40
2022-08-05T16:24:41.247Z,22.35
2022-08-05T16:27:19.277Z,22.14
2022-08-05T16:30:01.877Z,22.09
2022-08-05T16:32:30.026Z,22.17
2022-08-05T16:34:59.075Z,22.23
2022-08-05T16:38:01.816Z,22.15
2022-08-05T16:40:26.596Z,22.27
2022-08-05T16:42:57.893Z,22.18
2022-08-05T16:46:04.379Z,22.32
2022-08-05T16:48:26.187Z,22.35
2022-08-05T16:51:02.338Z,22.22
2022-08-05T16:54:05.393Z,22.09
2022-08-05T16:56:25.746Z,21.97
2022-08-05T16:58:53.852Z,21.91
2022-08-05T17:01:24.362Z,21.79
2022-08-05T17:03:53.169Z,21.69
2022-08-05T17:06:24.456Z,21.52
2022-08-05T17:08:54.571Z,21.36
2022-08-05T17:11:25.714Z,21.36
2022-08-05T17:14:00.223Z,21.38
2022-08-05T17:16:37.322Z,21.18
2022-08-05T17:19:07.452Z,20.91
2022-08-05T17:21:39.757Z,20.99
2022-08-05T17:24:19.735Z,20.87
2022-08-05T17:26:58.323Z,20.76
2022-08-05T17:29:33.647Z,20.74
2022-08-05T17:32:11.944Z,20.71
2022-08-05T17:34:46.201Z,20.65
2022-08-05T17:37:32.112Z,20.63
2022-08-05T17:40:10.704Z,20.63
2022-08-05T17:42:42.854Z,20.63
2022-08-05T17:45:21.035Z,20.66
2022-08-05T17:47:55.070Z,20.62
2022-08-05T17:50:28.910Z,20.59
2022-08-05T17:53:00.210Z,20.52
2022-08-05T17:55:37.316Z,20.40
2022-08-05T17:58:09.361Z,20.36
2022-08-05T18:00:39.921Z,20.37
2022-08-05T18:03:28.024Z,20.25
2022-08-05T18:06:05.817Z,20.22
2022-08-05T18:08:34.427Z,20.05
2022-08-05T18:11:03.913Z,20.19
2022-08-05T18:13:36.891Z,20.20
2022-08-05T18:16:13.423Z,20.06
2022-08-05T18:18:48.588Z,19.86
2022-08-05T18:21:19.587Z,19.96
2022-08-05T18:23:49.562Z,20.07
2022-08-05T18:26:22.267Z,20.03
2022-08-05T18:28:57.770Z,20.11
2022-08-05T18:31:26.026Z,20.15
2022-08-05T18:34:03.628Z,20.12
2022-08-05T18:36:36.191Z,20.18
2022-08-05T18:39:06.483Z,20.18
2022-08-05T18:41:55.215Z,20.14
2022-08-05T18:44:34.743Z,20.02
2022-08-05T18:47:04.619Z,19.97
2022-08-05T18:49:58.172Z,19.85
2022-08-05T18:52:35.670Z,19.77
2022-08-05T18:55:06.234Z,19.71
2022-08-05T18:57:52.473Z,19.61
2022-08-05T19:00:28.910Z,19.50
2022-08-05T19:03:04.103Z,19.32
2022-08-05T19:06:11.318Z,19.21
2022-08-05T19:08:30.875Z,19.09
2022-08-05T19:11:04.940Z,18.96
2022-08-05T19:13:35.952Z,18.85
2022-08-05T19:16:05.769Z,18.70
2022-08-05T19:18:56.626Z,18.58
2022-08-05T19:21:34.726Z,18.47
2022-08-05T19:24:09.025Z,18.33
2022-08-05T19:26:43.744Z,18.16
2022-08-05T19:29:22.995Z,18.02
2022-08-05T19:31:53.601Z,17.87
2022-08-05T19:34:22.609Z,17.71
2022-08-05T19:36:52.823Z,17.53
2022-08-05T19:39:21.697Z,17.37
2022-08-05T19:42:06.844Z,17.24
2022-08-05T19:44:45.125Z,17.10
2022-08-05T19:47:16.481Z,16.92
2022-08-05T19:49:45.220Z,16.70
2022-08-05T19:52:31.477Z,16.49
2022-08-05T19:55:06.824Z,16.31
2022-08-05T19:57:49.041Z,16.19
2022-08-05T20:00:25.955Z,16.03
2022-08-05T20:02:54.117Z,15.91
2022-08-05T20:05:25.197Z,15.82
2022-08-05T20:07:59.041Z,15.75
2022-08-05T20:10:27.812Z,15.67
2022-08-05T20:13:03.219Z,15.60
2022-08-05T20:15:52.637Z,15.53
2022-08-05T20:18:32.636Z,15.43
2022-08-05T20:21:10.267Z,15.31
2022-08-05T20:23:50.895Z,15.19
2022-08-05T20:26:27.290Z,15.07
2022-08-05T20:29:02.950Z,14.93
2022-08-05T20:31:42.233Z,14.79
2022-08-05T20:34:25.715Z,14.62
2022-08-05T20:36:59.462Z,14.53
2022-08-05T20:39:36.855Z,14.46
2022-08-05T20:42:08.409Z,14.37
2022-08-05T20:44:40.466Z,14.29
2022-08-05T20:47:13.918Z,14.19
2022-08-05T20:49:44.972Z,14.06
2022-08-05T20:52:26.826Z,14.00
2022-08-05T20:55:55.132Z,13.91
2022-08-05T20:57:53.434Z,13.80
2022-08-05T21:00:44.245Z,13.75
2022-08-05T21:03:25.488Z,13.69
2022-08-05T21:06:00.910Z,13.62
2022-08-05T21:08:41.385Z,13.51
2022-08-05T21:12:06.588Z,13.40
2022-08-05T21:14:10.513Z,13.25
2022-08-05T21:16:45.979Z,13.24
2022-08-05T21:19:18.542Z,13.22
2022-08-05T21:21:53.058Z,13.18
2022-08-05T21:24:21.790Z,13.18
2022-08-05T21:26:58.325Z,13.19
2022-08-05T21:29:33.900Z,13.17
2022-08-05T21:32:16.025Z,13.17
2022-08-05T21:35:06.915Z,13.16
2022-08-05T21:37:41.798Z,13.13
2022-08-05T21:40:20.640Z,13.08
2022-08-05T21:42:59.176Z,13.03
2022-08-05T21:45:56.225Z,12.97
2022-08-05T21:48:31.903Z,12.85
2022-08-05T21:51:04.364Z,12.79
2022-08-05T21:54:03.931Z,12.68
2022-08-05T21:56:44.651Z,12.56
2022-08-05T21:59:33.702Z,12.47
2022-08-05T22:02:14.204Z,12.36
2022-08-05T22:04:46.273Z,12.30
2022-08-05T22:07:40.508Z,12.18
2022-08-05T22:10:27.139Z,12.05
2022-08-05T22:13:09.259Z,11.92
2022-08-05T22:16:07.713Z,11.74
2022-08-05T22:18:52.075Z,11.52
2022-08-05T22:21:23.719Z,11.43
2022-08-05T22:24:13.231Z,11.37
2022-08-05T22:27:19.279Z,11.21
2022-08-05T22:29:54.231Z,11.18
2022-08-05T22:32:29.920Z,11.07
2022-08-05T22:35:01.994Z,10.95
2022-08-05T22:37:57.963Z,10.87
2022-08-05T22:40:24.525Z,10.71
2022-08-05T22:43:00.957Z,10.64
2022-08-05T22:45:30.751Z,10.58
2022-08-05T22:48:04.884Z,10.50
2022-08-05T22:50:39.548Z,10.41
2022-08-05T22:53:19.384Z,10.34
2022-08-05T22:55:59.333Z,10.25
2022-08-05T22:58:34.897Z,10.21
2022-08-05T23:01:11.279Z,10.19
2022-08-05T23:03:58.114Z,10.15
2022-08-05T23:06:29.319Z,10.08
2022-08-05T23:08:58.004Z,10.03
2022-08-05T23:11:49.253Z,10.00
2022-08-05T23:14:22.729Z,9.92
2022-08-05T23:17:23.956Z,9.90
2022-08-05T23:19:56.241Z,9.84
2022-08-05T23:22:27.303Z,9.78
2022-08-05T23:24:56.254Z,9.75
2022-08-05T23:27:31.260Z,9.68
2022-08-05T23:30:11.027Z,9.60
2022-08-05T23:32:45.070Z,9.52
2022-08-05T23:35:15.639Z,9.50
2022-08-05T23:37:43.890Z,9.50
2022-08-05T23:40:12.426Z,9.48
2022-08-05T23:42:47.368Z,9.43
2022-08-05T23:45:23.695Z,9.36
2022-08-05T23:47:52.180Z,9.32
2022-08-05T23:50:24.071Z,9.23
2022-08-05T23:52:54.733Z,9.21
2022-08-05T23:55:24.696Z,9.15
2022-08-05T23:57:59.490Z,9.08
